createdAt,value
2019-03-30T00:01:03.547Z,73.20
2019-03-30T00:06:03.805Z,73.00
2019-03-30T00:11:04.045Z,73.20
2019-03-30T00:16:04.521Z,73.50
2019-03-30T00:21:04.786Z,73.20
2019-03-30T00:26:05.012Z,73.30
2019-03-30T00:31:05.169Z,73.20
2019-03-30T00:36:05.486Z,73.30
2019-03-30T00:41:05.670Z,73.30
2019-03-30T00:46:05.826Z,73.40
2019-03-30T00:51:06.006Z,73.40
2019-03-30T00:56:06.186Z,73.10
2019-03-30T01:01:07.677Z,73.30
2019-03-30T01:06:07.869Z,73.60
2019-03-30T01:11:08.197Z,73.20
2019-03-30T01:16:08.665Z,73.50
2019-03-30T01:21:08.905Z,73.40
2019-03-30T01:26:10.146Z,73.40
2019-03-30T01:31:10.462Z,73.50
2019-03-30T01:36:10.657Z,73.40
2019-03-30T01:41:11.161Z,73.30
2019-03-30T01:46:11.330Z,73.40
2019-03-30T01:51:11.507Z,73.50
2019-03-30T01:56:11.673Z,73.90
2019-03-30T02:01:12.029Z,73.90
2019-03-30T02:06:12.197Z,73.80
2019-03-30T02:11:12.381Z,73.80
2019-03-30T02:16:12.573Z,73.60
2019-03-30T02:21:12.745Z,73.90
2019-03-30T02:26:13.030Z,73.80
2019-03-30T02:31:13.361Z,73.60
2019-03-30T02:36:13.554Z,73.80
2019-03-30T02:41:13.822Z,73.30
2019-03-30T02:46:14.039Z,73.50
2019-03-30T02:51:14.221Z,73.70
2019-03-30T02:56:14.394Z,73.90
2019-03-30T03:01:14.899Z,74.20
2019-03-30T03:06:15.231Z,73.80
2019-03-30T03:11:15.386Z,74.10
2019-03-30T03:16:15.535Z,74.20
2019-03-30T03:21:15.714Z,74.30
2019-03-30T03:26:15.883Z,74.00
2019-03-30T03:31:16.328Z,74.00
2019-03-30T03:36:16.515Z,74.20
2019-03-30T03:41:17.743Z,74.20
2019-03-30T03:46:18.274Z,74.20
2019-03-30T03:51:26.093Z,74.40
2019-03-30T03:56:24.838Z,74.40
2019-03-30T04:01:27.525Z,74.70
2019-03-30T04:06:30.442Z,74.70
2019-03-30T04:11:32.351Z,74.60
2019-03-30T04:16:32.851Z,74.70
2019-03-30T04:21:43.651Z,74.70
2019-03-30T04:26:35.276Z,74.80
2019-03-30T04:31:35.464Z,75.00
2019-03-30T04:36:35.987Z,74.90
2019-03-30T04:41:36.150Z,74.80
2019-03-30T04:46:36.374Z,75.20
2019-03-30T04:51:36.860Z,75.40
2019-03-30T04:56:37.060Z,75.60
2019-03-30T05:01:37.228Z,75.90
2019-03-30T05:06:37.718Z,76.30
2019-03-30T05:11:37.893Z,76.40
2019-03-30T05:16:38.106Z,76.70
2019-03-30T05:21:38.353Z,76.90
2019-03-30T05:26:38.927Z,76.90
2019-03-30T05:31:39.114Z,77.20
2019-03-30T05:36:39.286Z,77.20
2019-03-30T05:41:39.782Z,77.40
2019-03-30T05:46:40.515Z,77.40
2019-03-30T05:51:40.723Z,77.00
2019-03-30T05:56:40.931Z,77.40
2019-03-30T06:01:41.146Z,77.50
2019-03-30T06:06:41.334Z,77.80
2019-03-30T06:11:41.566Z,78.00
2019-03-30T06:16:42.006Z,78.20
2019-03-30T06:21:42.529Z,78.50
2019-03-30T06:26:42.719Z,78.70
2019-03-30T06:31:45.303Z,80.30
2019-03-30T06:36:45.177Z,79.00
2019-03-30T06:41:45.711Z,79.20
2019-03-30T06:46:45.962Z,79.50
2019-03-30T06:51:46.150Z,79.70
2019-03-30T06:56:46.334Z,79.90
2019-03-30T07:01:46.587Z,79.50
2019-03-30T07:06:48.247Z,79.40
2019-03-30T07:11:49.919Z,78.70
2019-03-30T07:16:52.002Z,79.30
2019-03-30T07:21:52.783Z,78.90
2019-03-30T07:26:53.293Z,78.60
2019-03-30T07:31:53.834Z,79.20
2019-03-30T07:36:54.033Z,79.00
2019-03-30T07:41:54.762Z,79.10
2019-03-30T07:46:55.218Z,78.80
2019-03-30T07:51:55.743Z,78.90
2019-03-30T07:57:05.427Z,78.90
2019-03-30T08:01:57.883Z,78.90
2019-03-30T08:06:58.078Z,78.80
2019-03-30T08:11:58.270Z,78.70
2019-03-30T08:16:58.434Z,78.80
2019-03-30T08:21:58.598Z,78.80
2019-03-30T08:26:58.794Z,78.90
2019-03-30T08:31:59.026Z,78.80
2019-03-30T08:36:59.535Z,79.30
2019-03-30T08:42:00.078Z,79.20
2019-03-30T08:47:00.342Z,79.00
2019-03-30T08:52:00.810Z,78.90
2019-03-30T08:57:01.096Z,79.30
2019-03-30T09:02:01.274Z,80.00
2019-03-30T09:07:01.774Z,79.70
2019-03-30T09:12:01.954Z,79.70
2019-03-30T09:17:02.177Z,79.70
2019-03-30T09:22:02.436Z,79.00
2019-03-30T09:27:02.626Z,79.10
2019-03-30T09:32:13.788Z,78.10
2019-03-30T09:37:05.942Z,77.80
2019-03-30T09:42:06.146Z,77.70
2019-03-30T09:47:06.326Z,75.10
2019-03-30T09:52:06.524Z,74.10
2019-03-30T09:57:06.715Z,72.30
2019-03-30T10:02:07.004Z,70.60
2019-03-30T10:07:07.416Z,70.80
2019-03-30T10:12:07.586Z,70.10
2019-03-30T10:17:08.298Z,68.90
2019-03-30T10:22:09.873Z,66.90
2019-03-30T10:27:10.622Z,66.30
2019-03-30T10:32:10.814Z,64.70
2019-03-30T10:37:11.086Z,65.50
2019-03-30T10:42:11.278Z,64.50
2019-03-30T10:47:11.747Z,63.20
2019-03-30T10:52:11.919Z,63.10
2019-03-30T10:57:12.091Z,62.80
2019-03-30T11:02:12.314Z,61.10
2019-03-30T11:07:12.866Z,62.00
2019-03-30T11:12:13.354Z,61.10
2019-03-30T11:17:14.152Z,61.30
2019-03-30T11:22:14.578Z,60.30
2019-03-30T11:27:14.745Z,59.80
2019-03-30T11:32:14.922Z,58.30
2019-03-30T11:37:15.086Z,59.10
2019-03-30T11:42:15.273Z,59.10
2019-03-30T11:47:15.507Z,58.20
2019-03-30T11:52:15.738Z,56.20
2019-03-30T11:57:15.955Z,57.60
2019-03-30T12:02:27.392Z,57.10
2019-03-30T12:07:17.999Z,57.60
2019-03-30T12:12:18.151Z,56.20
2019-03-30T12:17:18.314Z,56.40
2019-03-30T12:22:18.594Z,56.50
2019-03-30T12:27:18.842Z,54.50
2019-03-30T12:32:19.106Z,55.70
2019-03-30T12:37:20.392Z,54.60
2019-03-30T12:42:20.574Z,54.50
2019-03-30T12:47:20.854Z,54.60
2019-03-30T12:52:21.041Z,53.80
2019-03-30T12:57:21.502Z,54.20
2019-03-30T13:02:21.686Z,54.50
2019-03-30T13:07:22.118Z,53.00
2019-03-30T13:12:22.307Z,51.90
2019-03-30T13:17:22.595Z,52.60
2019-03-30T13:22:22.802Z,53.30
2019-03-30T13:27:23.302Z,52.80
2019-03-30T13:32:23.486Z,51.40
2019-03-30T13:37:23.773Z,51.40
2019-03-30T13:42:24.005Z,52.30
2019-03-30T13:47:25.182Z,51.10
2019-03-30T13:52:25.371Z,50.00
2019-03-30T13:57:25.875Z,49.90
2019-03-30T14:02:26.080Z,49.80
2019-03-30T14:07:26.248Z,50.10
2019-03-30T14:12:26.732Z,48.50
2019-03-30T14:17:27.343Z,49.40
2019-03-30T14:22:27.531Z,50.90
2019-03-30T14:27:28.113Z,50.80
2019-03-30T14:32:28.314Z,50.10
2019-03-30T14:37:28.546Z,50.20
2019-03-30T14:42:28.730Z,49.00
2019-03-30T14:47:28.930Z,50.20
2019-03-30T14:52:30.123Z,50.20
2019-03-30T14:57:30.323Z,49.40
2019-03-30T15:02:30.578Z,50.40
2019-03-30T15:07:30.775Z,49.00
2019-03-30T15:12:30.962Z,49.10
2019-03-30T15:17:31.140Z,49.40
2019-03-30T15:22:31.322Z,49.30
2019-03-30T15:27:32.491Z,49.60
2019-03-30T15:32:32.765Z,48.80
2019-03-30T15:37:33.244Z,49.30
2019-03-30T15:42:33.702Z,49.50
2019-03-30T15:47:34.246Z,49.30
2019-03-30T15:52:34.450Z,49.20
2019-03-30T15:57:34.767Z,49.20
2019-03-30T16:02:34.957Z,49.20
2019-03-30T16:07:36.272Z,49.20
2019-03-30T16:12:36.678Z,48.40
2019-03-30T16:17:36.877Z,48.00
2019-03-30T16:22:37.158Z,48.00
2019-03-30T16:27:39.242Z,49.20
2019-03-30T16:32:39.437Z,49.20
2019-03-30T16:37:39.887Z,49.10
2019-03-30T16:42:40.076Z,48.20
2019-03-30T16:47:40.267Z,49.00
2019-03-30T16:52:41.181Z,49.50
2019-03-30T16:57:44.090Z,50.10
2019-03-30T17:02:43.586Z,50.50
2019-03-30T17:07:44.031Z,50.90
2019-03-30T17:12:44.499Z,50.70
2019-03-30T17:17:44.719Z,51.20
2019-03-30T17:22:44.898Z,51.80
2019-03-30T17:27:57.428Z,51.40
2019-03-30T17:32:47.075Z,52.10
2019-03-30T17:37:47.283Z,52.90
2019-03-30T17:42:47.550Z,53.00
2019-03-30T17:47:47.746Z,53.30
2019-03-30T17:52:47.982Z,53.80
2019-03-30T17:57:48.420Z,54.30
2019-03-30T18:02:48.763Z,54.80
2019-03-30T18:07:48.958Z,54.80
2019-03-30T18:12:49.154Z,56.00
2019-03-30T18:17:50.039Z,55.50
2019-03-30T18:22:50.595Z,56.00
2019-03-30T18:27:50.843Z,56.30
2019-03-30T18:32:53.456Z,56.60
2019-03-30T18:37:53.958Z,56.30
2019-03-30T18:42:54.454Z,56.40
2019-03-30T18:47:57.238Z,56.90
2019-03-30T18:52:58.142Z,56.40
2019-03-30T18:57:59.153Z,54.90
2019-03-30T19:02:59.370Z,56.40
2019-03-30T19:07:59.573Z,57.30
2019-03-30T19:13:00.057Z,57.90
2019-03-30T19:18:00.329Z,58.70
2019-03-30T19:23:00.774Z,58.40
2019-03-30T19:28:01.107Z,59.00
2019-03-30T19:33:01.335Z,58.90
2019-03-30T19:38:01.628Z,59.00
2019-03-30T19:43:01.815Z,59.10
2019-03-30T19:48:02.178Z,59.60
2019-03-30T19:53:02.354Z,59.80
2019-03-30T19:58:03.707Z,59.10
2019-03-30T20:03:04.267Z,59.00
2019-03-30T20:08:12.053Z,58.80
2019-03-30T20:13:09.229Z,58.50
2019-03-30T20:18:08.374Z,58.80
2019-03-30T20:23:08.578Z,58.90
2019-03-30T20:28:08.752Z,59.30
2019-03-30T20:33:09.021Z,59.00
2019-03-30T20:38:09.227Z,58.80
2019-03-30T20:43:09.447Z,59.10
2019-03-30T20:48:09.654Z,59.70
2019-03-30T20:53:09.950Z,60.20
2019-03-30T20:58:10.165Z,60.50
2019-03-30T21:03:10.854Z,61.00
2019-03-30T21:08:11.038Z,61.20
2019-03-30T21:13:11.251Z,61.30
2019-03-30T21:18:11.502Z,61.10
2019-03-30T21:23:11.697Z,61.50
2019-03-30T21:28:11.888Z,61.40
2019-03-30T21:33:12.078Z,61.00
2019-03-30T21:38:12.838Z,61.70
2019-03-30T21:43:13.102Z,61.00
2019-03-30T21:48:13.300Z,60.90
2019-03-30T21:53:13.763Z,61.00
2019-03-30T21:58:14.010Z,61.60
2019-03-30T22:03:14.232Z,61.30
2019-03-30T22:08:17.136Z,60.90
2019-03-30T22:13:16.728Z,60.90
2019-03-30T22:18:16.910Z,60.70
2019-03-30T22:23:17.662Z,61.00
2019-03-30T22:28:18.094Z,61.40
2019-03-30T22:33:18.287Z,61.00
2019-03-30T22:38:18.466Z,61.60
2019-03-30T22:43:18.734Z,62.10
2019-03-30T22:48:19.186Z,61.80
2019-03-30T22:53:19.403Z,62.30
2019-03-30T22:58:19.649Z,63.10
2019-03-30T23:03:19.842Z,62.10
2019-03-30T23:08:20.050Z,62.70
2019-03-30T23:13:20.230Z,62.80
2019-03-30T23:18:20.414Z,63.00
2019-03-30T23:23:20.603Z,62.90
2019-03-30T23:28:22.175Z,63.00
2019-03-30T23:33:23.454Z,63.20
2019-03-30T23:38:23.724Z,63.30
2019-03-30T23:43:23.926Z,63.80
2019-03-30T23:48:24.126Z,64.10
2019-03-30T23:53:24.307Z,64.20
2019-03-30T23:58:24.498Z,64.30
